Time;durP1;ratioP1;P1;durP2;ratioP2;P2;SDS_P1;SDS_P2;PMS_P1;PMS_P2;Temp;Humidity;BMP_temperature;BMP_pressure;BME280_temperature;BME280_humidity;BME280_pressure;Samples;Min_cycle;Max_cycle;Signal;HPM_P1;HPM_P2
2023/06/12 00:01:01;;;;;;;5.40;4.80;;;;;;;17.88;54.27;99029.75;5045847;28;20061;-71
2023/06/12 00:03:29;;;;;;;5.72;4.95;;;;;;;17.85;54.24;99032.69;5045528;28;20117;-71
2023/06/12 00:05:58;;;;;;;5.80;5.03;;;;;;;17.79;54.22;99027.03;5044349;28;20216;-71
2023/06/12 00:08:27;;;;;;;7.15;5.68;;;;;;;17.86;54.14;99031.72;5044331;28;20030;-71
2023/06/12 00:10:54;;;;;;;8.05;4.63;;;;;;;17.78;54.32;99028.88;5045732;28;20095;-71
2023/06/12 00:13:21;;;;;;;9.48;5.18;;;;;;;17.77;54.00;99031.69;5045732;28;20056;-71
2023/06/12 00:15:48;;;;;;;6.05;4.65;;;;;;;17.72;54.49;99031.25;5046478;28;20037;-71
2023/06/12 00:18:15;;;;;;;5.75;5.15;;;;;;;17.78;54.14;99030.72;5049644;28;20098;-71
2023/06/12 00:20:43;;;;;;;7.35;5.07;;;;;;;17.76;54.51;99032.69;5049081;28;20041;-71
2023/06/12 00:23:11;;;;;;;8.85;5.00;;;;;;;17.76;54.66;99030.00;5048146;28;20320;-70
2023/06/12 00:25:39;;;;;;;5.07;4.57;;;;;;;17.40;54.64;98961.78;5048984;28;20041;-71
2023/06/12 00:28:06;;;;;;;7.38;5.20;;;;;;;17.75;54.63;99028.31;5048874;28;20116;-71
2023/06/12 00:30:33;;;;;;;5.93;5.22;;;;;;;17.78;54.58;99022.66;5048066;28;20289;-71
2023/06/12 00:33:00;;;;;;;6.05;5.05;;;;;;;17.73;54.70;99017.72;5049116;28;20060;-71
2023/06/12 00:35:26;;;;;;;8.18;6.55;;;;;;;17.68;55.00;99029.84;5049355;28;20045;-71
2023/06/12 00:37:55;;;;;;;8.50;5.72;;;;;;;17.60;55.02;99022.44;5048650;28;20107;-71
2023/06/12 00:40:22;;;;;;;6.00;4.95;;;;;;;17.67;54.69;99012.91;5047883;28;20049;-71
2023/06/12 00:42:50;;;;;;;7.78;5.72;;;;;;;17.67;54.86;99020.09;5047823;28;20099;-71
2023/06/12 00:45:19;;;;;;;6.53;5.45;;;;;;;17.59;55.29;99023.44;5048847;28;20091;-71
2023/06/12 00:47:49;;;;;;;6.72;5.20;;;;;;;17.60;54.96;99015.25;5048704;28;20046;-71
2023/06/12 00:50:16;;;;;;;5.70;4.90;;;;;;;17.54;55.08;99014.97;5048490;28;20041;-71
2023/06/12 00:52:46;;;;;;;5.03;4.53;;;;;;;17.56;55.26;99015.69;5048387;28;20324;-71
2023/06/12 00:55:14;;;;;;;7.03;5.18;;;;;;;17.52;55.34;99012.41;5048958;28;20245;-71
2023/06/12 00:57:41;;;;;;;6.07;5.22;;;;;;;17.54;54.95;99009.59;5048374;28;20113;-71
2023/06/12 01:00:11;;;;;;;6.68;4.75;;;;;;;17.50;54.81;99018.91;5048893;28;20253;-70
2023/06/12 01:02:42;;;;;;;5.38;4.68;;;;;;;17.46;55.44;99012.97;5047736;28;20270;-70
2023/06/12 01:05:11;;;;;;;6.53;5.50;;;;;;;17.39;55.89;99013.66;5048771;28;20095;-71
2023/06/12 01:07:45;;;;;;;8.38;6.00;;;;;;;17.41;55.24;99014.34;5047268;28;20048;-71
2023/06/12 01:10:18;;;;;;;7.07;6.25;;;;;;;17.42;55.40;99014.22;5047627;28;20125;-71
2023/06/12 01:12:47;;;;;;;7.47;6.30;;;;;;;17.41;55.21;99017.88;5048640;28;20056;-71
2023/06/12 01:15:14;;;;;;;5.70;5.10;;;;;;;17.41;55.33;99015.22;5048608;28;20071;-71
2023/06/12 01:17:41;;;;;;;5.80;4.72;;;;;;;17.40;55.41;99018.03;5048562;28;20041;-71
2023/06/12 01:20:12;;;;;;;6.07;4.78;;;;;;;17.38;55.68;99014.63;5047968;28;20137;-71
2023/06/12 01:22:43;;;;;;;6.25;4.90;;;;;;;17.34;55.45;99019.41;5047927;28;20045;-71
2023/06/12 01:25:24;;;;;;;5.40;4.43;;;;;;;17.34;55.74;99016.72;5048397;28;20209;-71
2023/06/12 01:28:01;;;;;;;5.22;4.30;;;;;;;17.31;55.57;99015.16;5047118;28;20064;-71
2023/06/12 01:30:49;;;;;;;4.93;4.25;;;;;;;17.25;55.59;99023.75;5048318;28;20061;-71
2023/06/12 01:33:25;;;;;;;5.75;5.03;;;;;;;17.25;55.19;99014.88;5048017;28;20112;-71
2023/06/12 01:35:53;;;;;;;6.10;4.40;;;;;;;17.17;55.84;99026.22;5047679;28;20060;-71
2023/06/12 01:38:21;;;;;;;7.93;5.63;;;;;;;17.18;55.63;99019.88;5047486;28;20061;-71
2023/06/12 01:40:49;;;;;;;7.20;4.70;;;;;;;17.19;55.98;99012.69;5047668;28;20037;-70
2023/06/12 01:43:16;;;;;;;7.95;5.05;;;;;;;17.18;55.81;99009.16;5047822;28;20076;-71
2023/06/12 01:45:43;;;;;;;5.97;4.85;;;;;;;17.20;55.47;99011.72;5047495;28;20037;-70
2023/06/12 01:48:09;;;;;;;6.85;5.13;;;;;;;17.18;55.64;99016.34;5047298;28;20045;-71
2023/06/12 01:50:38;;;;;;;5.82;5.07;;;;;;;17.16;56.09;99021.00;5047669;28;20196;-71
2023/06/12 01:53:05;;;;;;;8.38;6.47;;;;;;;17.16;55.94;99021.00;5047842;28;20048;-71
2023/06/12 01:55:32;;;;;;;6.03;5.30;;;;;;;17.15;55.98;99016.63;5047335;28;20037;-71
2023/06/12 01:57:59;;;;;;;5.72;5.00;;;;;;;17.09;56.05;99026.03;5047533;28;20091;-70
2023/06/12 02:00:26;;;;;;;8.98;6.25;;;;;;;17.10;55.98;99018.84;5046359;28;20095;-70
2023/06/12 02:02:54;;;;;;;6.05;5.18;;;;;;;17.10;55.91;99024.22;5046346;28;20106;-70
2023/06/12 02:05:21;;;;;;;9.30;5.97;;;;;;;17.09;56.29;99033.22;5046314;28;20045;-70
2023/06/12 02:07:50;;;;;;;8.13;5.88;;;;;;;16.98;56.56;99032.31;5047286;28;20099;-70
2023/06/12 02:10:16;;;;;;;7.35;5.40;;;;;;;16.99;55.60;99031.34;5047603;28;20080;-70
2023/06/12 02:12:44;;;;;;;7.00;6.30;;;;;;;16.94;56.25;99038.06;5047527;28;20096;-70
2023/06/12 02:15:11;;;;;;;5.97;5.20;;;;;;;16.93;56.15;99036.38;5047195;28;20143;-71
2023/06/12 02:17:38;;;;;;;6.65;5.22;;;;;;;16.89;56.39;99033.13;5047135;28;20049;-70
2023/06/12 02:20:06;;;;;;;8.48;5.40;;;;;;;16.83;56.21;99044.34;5046838;28;20041;-71
2023/06/12 02:22:33;;;;;;;6.80;5.40;;;;;;;16.49;56.05;98976.78;5046794;28;20045;-71
2023/06/12 02:25:01;;;;;;;8.85;4.55;;;;;;;16.83;56.29;99041.69;5047214;28;20087;-71
2023/06/12 02:27:28;;;;;;;5.75;5.15;;;;;;;16.80;56.44;99046.44;5047145;28;20289;-71
2023/06/12 02:29:55;;;;;;;7.53;5.53;;;;;;;16.69;56.62;99044.69;5046836;28;20072;-71
2023/06/12 02:32:22;;;;;;;5.93;5.32;;;;;;;16.74;56.64;99042.47;5046797;28;20045;-71
2023/06/12 02:34:49;;;;;;;6.13;5.53;;;;;;;16.69;56.44;99044.69;5045692;28;20120;-71
2023/06/12 02:37:16;;;;;;;6.90;4.88;;;;;;;16.69;57.18;99050.03;5045606;28;20241;-71
2023/06/12 02:39:43;;;;;;;5.70;4.95;;;;;;;16.58;57.77;99042.88;5045455;28;20076;-71
2023/06/12 02:42:11;;;;;;;7.22;5.32;;;;;;;16.64;57.53;99052.22;5046379;28;20049;-71
2023/06/12 02:44:38;;;;;;;6.45;5.55;;;;;;;16.64;56.84;99050.41;5045452;28;20038;-71
2023/06/12 02:47:05;;;;;;;6.18;4.45;;;;;;;16.65;57.21;99051.25;5045388;28;20037;-70
2023/06/12 02:49:32;;;;;;;7.88;5.25;;;;;;;16.57;57.42;99062.59;5046529;28;20217;-70
2023/06/12 02:51:59;;;;;;;7.20;4.70;;;;;;;16.60;57.63;99066.84;5046736;28;20064;-70
2023/06/12 02:54:27;;;;;;;8.43;4.85;;;;;;;16.52;58.32;99067.47;5046159;28;20041;-71
2023/06/12 02:56:54;;;;;;;8.73;5.18;;;;;;;16.47;58.69;99064.34;5046449;28;20060;-71
2023/06/12 02:59:23;;;;;;;5.68;4.93;;;;;;;16.46;58.92;99061.81;5046065;28;20049;-71
2023/06/12 03:01:50;;;;;;;6.78;4.63;;;;;;;16.48;58.25;99066.03;5046002;28;20047;-71
2023/06/12 03:04:20;;;;;;;5.88;5.13;;;;;;;16.18;58.50;99034.69;5046518;28;20060;-71
2023/06/12 03:06:47;;;;;;;9.32;4.88;;;;;;;15.93;58.81;99000.28;5045916;28;20064;-70
2023/06/12 03:09:15;;;;;;;6.35;4.85;;;;;;;15.98;58.84;99014.13;5046383;28;20092;-71
2023/06/12 03:11:43;;;;;;;5.95;5.35;;;;;;;16.40;58.38;99073.00;5046118;28;20072;-71
2023/06/12 03:14:10;;;;;;;6.60;5.32;;;;;;;16.33;58.64;99078.88;5044967;28;20219;-70
2023/06/12 03:16:38;;;;;;;6.10;5.05;;;;;;;16.27;58.96;99070.50;5046410;28;20041;-70
2023/06/12 03:19:05;;;;;;;9.60;5.15;;;;;;;16.28;59.10;99069.53;5045750;28;20087;-70
2023/06/12 03:21:31;;;;;;;7.25;5.45;;;;;;;16.19;59.54;99073.81;5044828;28;20083;-70
2023/06/12 03:23:58;;;;;;;7.47;5.65;;;;;;;16.19;59.54;99075.66;5045951;28;20189;-70
2023/06/12 03:26:27;;;;;;;7.07;5.43;;;;;;;16.12;59.51;99077.97;5044774;28;20072;-70
2023/06/12 03:28:54;;;;;;;6.38;4.85;;;;;;;16.07;59.53;99077.50;5045879;28;20041;-70
2023/06/12 03:31:24;;;;;;;5.55;4.78;;;;;;;16.07;59.70;99082.84;5046058;28;20041;-70
2023/06/12 03:33:53;;;;;;;5.55;5.05;;;;;;;16.02;59.86;99082.38;5044734;28;20045;-70
2023/06/12 03:36:21;;;;;;;6.10;4.97;;;;;;;16.00;60.31;99082.50;5045495;28;20041;-70
2023/06/12 03:38:47;;;;;;;6.53;5.35;;;;;;;15.99;60.05;99093.31;5045326;28;20309;-71
2023/06/12 03:41:14;;;;;;;6.05;4.78;;;;;;;15.94;60.56;99084.81;5045495;28;20059;-70
2023/06/12 03:43:42;;;;;;;7.32;5.13;;;;;;;15.93;60.49;99086.66;5044593;28;20041;-70
2023/06/12 03:46:08;;;;;;;7.90;5.50;;;;;;;15.88;60.32;99088.00;5044567;28;20041;-71
2023/06/12 03:48:36;;;;;;;7.40;4.95;;;;;;;15.87;61.17;99092.50;5044443;28;20041;-71
2023/06/12 03:51:04;;;;;;;6.28;4.80;;;;;;;15.89;60.94;99098.56;5044497;28;20088;-71
2023/06/12 03:53:31;;;;;;;6.10;5.45;;;;;;;15.88;60.90;99093.34;5045628;28;20328;-71
2023/06/12 03:55:57;;;;;;;7.38;5.60;;;;;;;15.88;60.72;99093.34;5044469;28;20332;-71
2023/06/12 03:58:24;;;;;;;8.80;5.25;;;;;;;15.85;60.96;99090.91;5045823;28;20092;-71
2023/06/12 04:00:52;;;;;;;6.20;5.18;;;;;;;15.84;60.97;99097.25;5045554;28;20045;-71
2023/06/12 04:03:20;;;;;;;5.70;5.03;;;;;;;15.82;61.10;99092.03;5045287;28;20049;-71
2023/06/12 04:05:47;;;;;;;6.93;5.60;;;;;;;15.84;61.37;99090.06;5044390;28;20034;-71
2023/06/12 04:08:15;;;;;;;6.13;5.53;;;;;;;15.82;61.36;99094.69;5044307;28;20038;-71
2023/06/12 04:10:44;;;;;;;6.00;4.60;;;;;;;15.77;61.61;99098.72;5044306;28;20050;-71
2023/06/12 04:13:11;;;;;;;6.63;5.50;;;;;;;15.86;61.43;99097.97;5045495;28;20255;-70
2023/06/12 04:15:39;;;;;;;6.80;5.25;;;;;;;15.79;61.14;99100.28;5044446;28;20037;-70
2023/06/12 04:18:06;;;;;;;7.07;5.53;;;;;;;15.80;61.49;99093.97;5045377;28;20063;-71
2023/06/12 04:20:33;;;;;;;7.85;5.15;;;;;;;15.89;61.04;99098.56;5044311;28;20048;-71
2023/06/12 04:23:04;;;;;;;7.75;5.00;;;;;;;15.91;61.12;99101.13;5045056;28;20045;-70
2023/06/12 04:25:32;;;;;;;6.47;5.13;;;;;;;15.93;60.86;99099.16;5044188;28;20041;-71
2023/06/12 04:28:00;;;;;;;7.00;5.50;;;;;;;15.89;60.97;99092.38;5044932;28;20041;-71
2023/06/12 04:30:27;;;;;;;7.85;5.38;;;;;;;15.79;61.01;99076.22;5045528;28;20095;-71
2023/06/12 04:32:56;;;;;;;7.50;5.20;;;;;;;16.00;60.69;99100.38;5044187;28;20087;-71
2023/06/12 04:35:22;;;;;;;7.50;5.63;;;;;;;15.97;60.40;99095.28;5044951;28;20301;-71
2023/06/12 04:37:52;;;;;;;8.20;4.72;;;;;;;15.98;60.53;99086.28;5044898;28;20179;-72
2023/06/12 04:40:20;;;;;;;6.47;5.10;;;;;;;15.84;60.58;99076.72;5045500;28;20041;-72
2023/06/12 04:42:48;;;;;;;6.45;5.20;;;;;;;15.95;60.51;99102.56;5045334;28;20037;-71
2023/06/12 04:45:15;;;;;;;7.78;5.43;;;;;;;15.97;59.92;99108.63;5044830;28;20049;-71
2023/06/12 04:47:41;;;;;;;7.28;5.20;;;;;;;15.93;59.10;99097.34;5045053;28;20053;-72
2023/06/12 04:50:10;;;;;;;8.68;5.60;;;;;;;16.01;59.33;99108.25;5044828;28;20045;-72
2023/06/12 04:52:37;;;;;;;7.78;4.72;;;;;;;16.02;58.57;99106.44;5044773;28;20256;-71
2023/06/12 04:55:08;;;;;;;6.97;5.65;;;;;;;15.98;58.21;99111.19;5043784;28;20049;-72
2023/06/12 04:57:36;;;;;;;6.45;4.93;;;;;;;16.00;58.43;99111.06;5043880;28;20064;-71
2023/06/12 05:00:07;;;;;;;5.70;4.20;;;;;;;16.02;58.50;99107.28;5044646;28;20049;-72
2023/06/12 05:02:34;;;;;;;5.55;4.15;;;;;;;16.04;57.77;99112.50;5045512;28;20045;-72
2023/06/12 05:05:01;;;;;;;5.32;4.30;;;;;;;16.10;58.27;99103.97;5048075;28;20041;-72
2023/06/12 05:07:28;;;;;;;5.30;4.35;;;;;;;16.13;58.22;99119.78;5048494;28;20041;-72
2023/06/12 05:09:55;;;;;;;7.13;4.40;;;;;;;16.12;57.72;99117.22;5048078;28;20041;-72
2023/06/12 05:12:22;;;;;;;5.32;4.03;;;;;;;16.14;57.67;99112.59;5048630;28;20041;-71
2023/06/12 05:14:49;;;;;;;5.55;4.05;;;;;;;16.13;57.07;99117.09;5048376;28;20228;-71
2023/06/12 05:17:17;;;;;;;8.55;4.95;;;;;;;16.11;57.23;99118.19;5048605;28;20061;-71
2023/06/12 05:19:44;;;;;;;5.53;4.53;;;;;;;16.11;56.92;99116.38;5047884;28;20041;-71
2023/06/12 05:22:11;;;;;;;9.35;5.32;;;;;;;16.15;56.86;99112.47;5048234;28;20041;-71
2023/06/12 05:24:38;;;;;;;5.57;4.85;;;;;;;16.22;56.78;99110.16;5047759;28;20113;-71
2023/06/12 05:27:06;;;;;;;6.18;4.18;;;;;;;16.14;55.93;99113.44;5048129;28;20108;-71
2023/06/12 05:29:33;;;;;;;9.98;4.68;;;;;;;16.17;56.52;99107.84;5046848;28;20037;-71
2023/06/12 05:32:00;;;;;;;10.95;5.93;;;;;;;16.18;56.04;99109.56;5047680;28;20064;-71
2023/06/12 05:34:29;;;;;;;5.90;4.18;;;;;;;16.20;55.72;99112.94;5047925;28;20046;-71
2023/06/12 05:36:55;;;;;;;6.63;4.65;;;;;;;16.28;56.26;99112.31;5047686;28;20105;-70
2023/06/12 05:39:22;;;;;;;5.25;4.40;;;;;;;16.26;56.08;99104.41;5047391;28;20128;-71
2023/06/12 05:41:49;;;;;;;6.70;4.82;;;;;;;16.33;56.23;99110.13;5046533;28;20217;-71
2023/06/12 05:44:16;;;;;;;5.00;4.50;;;;;;;16.36;56.25;99102.69;5047770;28;20045;-71
2023/06/12 05:46:43;;;;;;;6.03;4.57;;;;;;;16.40;56.17;99110.47;5047333;28;20048;-71
2023/06/12 05:49:10;;;;;;;7.43;4.95;;;;;;;16.44;56.09;99123.44;5047567;28;20047;-71
2023/06/12 05:51:38;;;;;;;6.68;5.63;;;;;;;16.47;55.85;99120.53;5046793;28;20057;-71
2023/06/12 05:54:05;;;;;;;7.85;5.28;;;;;;;16.38;55.65;99107.06;5046446;28;20048;-71
2023/06/12 05:56:31;;;;;;;12.95;6.55;;;;;;;16.50;55.80;99124.75;5046973;28;20053;-70
2023/06/12 05:58:58;;;;;;;11.77;6.10;;;;;;;16.53;56.08;99125.34;5047779;28;20181;-70
2023/06/12 06:01:25;;;;;;;8.55;5.60;;;;;;;16.52;55.49;99123.66;5047346;28;20105;-71
2023/06/12 06:03:52;;;;;;;5.47;4.65;;;;;;;16.48;55.64;99129.41;5047346;28;20054;-71
2023/06/12 06:06:19;;;;;;;6.10;4.97;;;;;;;16.57;55.62;99123.28;5046123;28;20120;-71
2023/06/12 06:08:48;;;;;;;6.15;4.30;;;;;;;16.57;55.32;99124.13;5047212;28;20033;-71
2023/06/12 06:11:15;;;;;;;8.23;5.25;;;;;;;16.62;55.10;99124.59;5047291;28;20059;-70
2023/06/12 06:13:43;;;;;;;6.00;4.82;;;;;;;16.62;55.53;99135.28;5047402;28;20041;-70
2023/06/12 06:16:10;;;;;;;5.20;4.70;;;;;;;16.67;54.92;99122.41;5047647;28;20187;-71
2023/06/12 06:18:37;;;;;;;7.85;4.75;;;;;;;16.65;55.11;99126.16;5046991;28;20247;-71
2023/06/12 06:21:04;;;;;;;5.18;4.50;;;;;;;16.71;55.08;99133.72;5045924;28;20045;-71
2023/06/12 06:23:32;;;;;;;7.72;5.03;;;;;;;16.73;55.64;99120.19;5047220;28;20092;-71
2023/06/12 06:26:00;;;;;;;6.68;4.53;;;;;;;16.77;56.28;99119.81;5047153;28;20052;-71
2023/06/12 06:28:26;;;;;;;8.82;5.68;;;;;;;16.84;56.34;99118.31;5046908;28;20282;-71
2023/06/12 06:30:53;;;;;;;12.15;6.15;;;;;;;16.86;56.48;99126.22;5046546;28;20091;-71
2023/06/12 06:33:20;;;;;;;7.43;5.70;;;;;;;16.12;56.33;98996.94;5046833;28;20112;-71
2023/06/12 06:35:47;;;;;;;6.75;5.05;;;;;;;16.93;56.21;99124.72;5046654;28;20117;-71
2023/06/12 06:38:19;;;;;;;6.00;5.00;;;;;;;16.92;56.44;99128.38;5046488;28;20076;-71
2023/06/12 06:40:46;;;;;;;6.18;5.13;;;;;;;16.97;56.26;99127.00;5046326;28;20045;-71
2023/06/12 06:43:14;;;;;;;6.68;4.85;;;;;;;17.02;56.48;99123.94;5046360;28;20184;-70
2023/06/12 06:45:41;;;;;;;9.32;5.63;;;;;;;17.05;56.74;99130.84;5046541;28;20041;-70
2023/06/12 06:48:08;;;;;;;5.15;4.50;;;;;;;17.09;56.45;99119.75;5046473;28;20220;-71
2023/06/12 06:50:35;;;;;;;5.25;4.30;;;;;;;17.18;56.63;99123.47;5046399;28;20088;-70
2023/06/12 06:53:02;;;;;;;7.57;4.93;;;;;;;17.20;56.37;99127.75;5046690;28;20108;-71
2023/06/12 06:55:29;;;;;;;5.28;4.70;;;;;;;17.18;56.15;99120.78;5045816;28;20308;-71
2023/06/12 06:57:57;;;;;;;7.72;4.93;;;;;;;17.17;56.51;99121.78;5044934;28;20037;-71
2023/06/12 07:00:26;;;;;;;5.55;4.88;;;;;;;17.27;56.65;99120.03;5045811;28;20037;-71
2023/06/12 07:02:53;;;;;;;11.30;5.95;;;;;;;17.33;56.53;99113.28;5045932;28;20060;-71
2023/06/12 07:05:20;;;;;;;7.10;4.90;;;;;;;17.40;55.44;99122.50;5045050;28;20041;-71
2023/06/12 07:07:48;;;;;;;6.53;4.75;;;;;;;17.42;55.74;99117.84;5045793;28;20297;-71
2023/06/12 07:10:15;;;;;;;10.15;6.72;;;;;;;17.36;54.85;99123.75;5046122;28;20049;-71
2023/06/12 07:12:42;;;;;;;6.85;4.95;;;;;;;16.88;55.24;99038.59;5045269;28;20124;-70
2023/06/12 07:15:09;;;;;;;7.50;4.68;;;;;;;17.42;55.38;99081.19;5046320;28;20109;-71
2023/06/12 07:17:38;;;;;;;6.07;5.10;;;;;;;17.74;55.10;99121.25;5046117;28;20048;-70
2023/06/12 07:20:06;;;;;;;5.85;4.68;;;;;;;17.77;55.10;99122.81;5045911;28;20052;-71
2023/06/12 07:22:34;;;;;;;8.13;4.85;;;;;;;17.75;55.09;99124.78;5044885;28;20037;-71
2023/06/12 07:25:00;;;;;;;7.10;4.85;;;;;;;17.78;55.43;99120.00;5044509;28;20049;-71
2023/06/12 07:27:27;;;;;;;6.43;5.07;;;;;;;17.93;55.55;99118.66;5045546;28;20051;-71
2023/06/12 07:29:55;;;;;;;6.80;5.20;;;;;;;17.88;54.73;99114.69;5044878;28;20037;-71
2023/06/12 07:32:21;;;;;;;7.20;4.85;;;;;;;17.93;54.68;99117.81;5045672;28;20305;-71
2023/06/12 07:34:50;;;;;;;6.03;4.75;;;;;;;18.12;54.80;99117.00;5045615;28;20038;-71
2023/06/12 07:37:20;;;;;;;5.47;4.45;;;;;;;18.25;53.76;99112.22;5045576;28;20178;-70
2023/06/12 07:39:47;;;;;;;6.50;5.00;;;;;;;18.29;54.38;99108.28;5028008;28;20061;-71
2023/06/12 07:42:14;;;;;;;6.65;4.97;;;;;;;18.33;53.82;99109.69;5045720;28;20213;-71
2023/06/12 07:44:42;;;;;;;8.90;5.38;;;;;;;18.42;53.27;99108.00;5045727;28;20046;-70
2023/06/12 07:47:08;;;;;;;7.95;5.47;;;;;;;18.42;53.40;99108.84;5045943;28;20095;-71
2023/06/12 07:49:35;;;;;;;6.75;4.65;;;;;;;18.24;52.83;99089.06;5045840;28;20185;-71
2023/06/12 07:52:04;;;;;;;6.13;5.28;;;;;;;18.38;52.82;99111.94;5045839;28;20087;-71
2023/06/12 07:54:31;;;;;;;6.63;5.78;;;;;;;18.49;52.38;99104.63;5045507;28;20041;-71
2023/06/12 07:56:58;;;;;;;10.27;5.68;;;;;;;18.54;51.22;99107.75;5045552;28;20041;-71
2023/06/12 07:59:25;;;;;;;8.15;6.88;;;;;;;18.58;51.70;99114.53;5045577;28;20297;-71
2023/06/12 08:01:52;;;;;;;8.13;7.32;;;;;;;18.67;52.01;99106.63;5028035;28;20076;-71
2023/06/12 08:04:19;;;;;;;7.40;5.88;;;;;;;18.68;51.92;99103.81;5045467;28;20041;-71
2023/06/12 08:06:47;;;;;;;7.85;6.35;;;;;;;18.67;52.23;99104.78;5045395;28;20170;-71
2023/06/12 08:09:15;;;;;;;10.98;6.80;;;;;;;18.63;52.26;99103.38;5045183;28;20041;-71
2023/06/12 08:11:42;;;;;;;8.30;6.60;;;;;;;18.64;51.33;99109.59;5045106;28;20049;-71
2023/06/12 08:14:09;;;;;;;6.32;5.00;;;;;;;18.58;51.87;99111.84;5045395;28;20068;-71
2023/06/12 08:16:36;;;;;;;5.63;4.75;;;;;;;18.57;51.56;99106.63;5045361;28;20107;-71
2023/06/12 08:19:04;;;;;;;8.20;5.60;;;;;;;18.69;52.37;99108.19;5045280;28;20289;-71
2023/06/12 08:21:31;;;;;;;8.35;5.72;;;;;;;18.64;50.30;99099.72;5045295;28;20224;-71
2023/06/12 08:23:57;;;;;;;14.55;4.57;;;;;;;18.60;50.68;99103.66;5044478;28;20045;-71
2023/06/12 08:26:26;;;;;;;8.40;5.38;;;;;;;18.60;50.59;99106.34;5045632;28;20045;-70
2023/06/12 08:28:53;;;;;;;6.60;4.95;;;;;;;18.68;50.94;99108.31;5044912;28;20061;-71
2023/06/12 08:31:21;;;;;;;5.70;4.55;;;;;;;18.15;51.54;99053.19;5044985;28;20053;-70
2023/06/12 08:33:48;;;;;;;8.18;5.10;;;;;;;18.63;51.46;99111.44;5044096;28;20116;-71
2023/06/12 08:36:14;;;;;;;5.78;4.80;;;;;;;18.57;50.77;99106.63;5045423;28;20112;-71
2023/06/12 08:38:41;;;;;;;8.68;4.70;;;;;;;18.52;50.25;99114.25;5047384;28;20068;-71
2023/06/12 08:41:08;;;;;;;9.52;4.97;;;;;;;18.61;50.90;99118.78;5048911;28;20364;-71
2023/06/12 08:43:36;;;;;;;6.65;4.97;;;;;;;18.64;51.51;99117.66;5049111;28;20033;-71
2023/06/12 08:46:04;;;;;;;6.50;5.03;;;;;;;18.72;51.15;99113.25;5049093;28;20041;-71
2023/06/12 08:48:33;;;;;;;6.78;4.97;;;;;;;18.82;51.29;99119.47;5048799;28;20049;-71
2023/06/12 08:51:01;;;;;;;7.65;4.97;;;;;;;18.85;51.10;99116.50;5048590;28;20045;-71
2023/06/12 08:53:28;;;;;;;8.32;5.20;;;;;;;18.84;49.67;99113.97;5048662;28;20298;-71
2023/06/12 08:55:56;;;;;;;6.22;4.40;;;;;;;18.98;48.91;99104.63;5047576;28;20209;-71
2023/06/12 08:58:23;;;;;;;6.70;5.00;;;;;;;19.21;49.57;99105.97;5048411;28;20301;-71
2023/06/12 09:00:52;;;;;;;9.35;6.20;;;;;;;19.34;49.18;99105.66;5048650;28;20290;-71
2023/06/12 09:03:20;;;;;;;6.28;5.32;;;;;;;19.61;49.37;99107.59;5048552;28;20045;-70
2023/06/12 09:05:48;;;;;;;5.18;4.30;;;;;;;19.24;47.59;99036.69;5047379;28;20041;-71
2023/06/12 09:08:15;;;;;;;6.50;4.63;;;;;;;19.97;47.64;99108.56;5047426;28;20205;-71
2023/06/12 09:10:42;;;;;;;5.80;4.13;;;;;;;19.87;47.20;99111.31;5048367;28;20158;-71
2023/06/12 09:13:10;;;;;;;6.22;5.40;;;;;;;20.11;47.07;99111.59;5047331;28;20041;-71
2023/06/12 09:15:38;;;;;;;5.00;4.50;;;;;;;20.16;46.18;99098.53;5048297;28;20066;-70
2023/06/12 09:18:10;;;;;;;5.38;4.40;;;;;;;20.46;45.54;99099.22;5048052;28;20400;-71
2023/06/12 09:20:37;;;;;;;9.10;4.90;;;;;;;20.22;46.13;99042.44;5047134;28;20045;-70
2023/06/12 09:23:05;;;;;;;7.38;4.70;;;;;;;20.63;45.20;99103.75;5047149;28;20041;-70
2023/06/12 09:25:35;;;;;;;7.72;4.53;;;;;;;20.35;45.00;99096.75;5048133;28;20182;-71
2023/06/12 09:28:03;;;;;;;6.35;5.38;;;;;;;20.64;45.78;99105.44;5047810;28;20037;-71
2023/06/12 09:30:30;;;;;;;6.05;5.20;;;;;;;20.90;45.48;99101.94;5047905;28;20064;-71
2023/06/12 09:33:00;;;;;;;6.50;4.53;;;;;;;20.71;44.06;99101.13;5047760;28;20099;-71
2023/06/12 09:35:28;;;;;;;10.55;4.65;;;;;;;20.97;44.83;99092.25;5046866;28;20190;-71
2023/06/12 09:37:57;;;;;;;5.53;4.13;;;;;;;20.96;44.12;99096.78;5047510;28;20063;-71
2023/06/12 09:40:25;;;;;;;6.60;4.70;;;;;;;21.24;44.12;99094.81;5047279;28;20057;-71
2023/06/12 09:42:52;;;;;;;6.80;4.25;;;;;;;21.28;44.82;99095.34;5046591;28;20049;-71
2023/06/12 09:45:20;;;;;;;5.78;4.80;;;;;;;21.40;43.98;99092.22;5047683;28;20091;-71
2023/06/12 09:47:49;;;;;;;6.70;4.15;;;;;;;21.57;43.09;99082.38;5047945;28;20053;-71
2023/06/12 09:50:18;;;;;;;5.53;3.92;;;;;;;21.24;43.03;99013.97;5046104;28;20044;-71
2023/06/12 09:52:47;;;;;;;7.35;4.40;;;;;;;21.88;43.05;99079.16;5047490;28;20294;-70
2023/06/12 09:55:16;;;;;;;8.02;4.88;;;;;;;21.89;41.68;99073.59;5047232;28;20116;-70
2023/06/12 09:57:46;;;;;;;10.35;4.80;;;;;;;21.80;40.97;99071.88;5047226;28;20045;-70
2023/06/12 10:00:16;;;;;;;8.02;4.78;;;;;;;21.78;40.16;99081.97;5047461;28;20196;-70
2023/06/12 10:02:49;;;;;;;6.68;5.07;;;;;;;21.70;40.58;99081.94;5047439;28;20049;-71
2023/06/12 10:05:20;;;;;;;4.90;4.13;;;;;;;21.62;41.14;99055.78;5047056;28;20041;-70
2023/06/12 10:07:52;;;;;;;6.47;4.45;;;;;;;22.01;41.55;99076.84;5046115;28;20045;-70
2023/06/12 10:10:19;;;;;;;5.28;4.07;;;;;;;22.30;41.42;99077.25;5046874;28;20079;-71
2023/06/12 10:12:46;;;;;;;5.72;4.72;;;;;;;22.01;40.76;99082.25;5047002;28;20051;-71
2023/06/12 10:15:13;;;;;;;8.90;4.55;;;;;;;21.71;40.10;99086.31;5047298;28;20064;-70
2023/06/12 10:17:41;;;;;;;6.07;4.53;;;;;;;21.74;40.11;99088.69;5029526;28;20041;-70
2023/06/12 10:20:10;;;;;;;5.70;4.70;;;;;;;22.07;40.21;99086.97;5046955;28;20056;-70
2023/06/12 10:22:37;;;;;;;5.18;4.40;;;;;;;22.08;39.58;99088.66;5046578;28;20219;-70
2023/06/12 10:25:07;;;;;;;5.90;4.95;;;;;;;22.27;39.94;99077.59;5045793;28;20038;-70
2023/06/12 10:27:34;;;;;;;4.90;3.88;;;;;;;22.31;40.17;99078.94;5046857;28;20092;-70
2023/06/12 10:30:03;;;;;;;6.65;4.38;;;;;;;22.20;40.54;99070.31;5046815;28;20050;-71
2023/06/12 10:32:33;;;;;;;5.30;3.90;;;;;;;21.96;40.63;99082.72;5046856;28;20193;-71
2023/06/12 10:35:01;;;;;;;5.80;4.63;;;;;;;21.91;40.99;99079.69;5045711;28;20042;-70
2023/06/12 10:37:30;;;;;;;5.00;4.43;;;;;;;21.91;40.97;99070.75;5045566;28;20045;-70
2023/06/12 10:40:15;;;;;;;6.25;5.22;;;;;;;21.25;41.04;98942.06;5046668;28;20041;-70
2023/06/12 10:42:43;;;;;;;7.50;4.72;;;;;;;22.12;40.96;99073.00;5046365;28;20052;-70
2023/06/12 10:45:18;;;;;;;6.90;4.43;;;;;;;21.92;40.46;99065.19;5045445;28;20041;-70
2023/06/12 10:48:14;;;;;;;6.78;5.10;;;;;;;22.19;40.12;99064.06;5046788;28;20261;-70
2023/06/12 10:50:44;;;;;;;4.45;3.55;;;;;;;22.03;39.55;99062.19;5012194;28;20069;-70
2023/06/12 10:53:13;;;;;;;6.50;5.00;;;;;;;21.92;39.93;99065.19;5046130;28;20041;-70
2023/06/12 10:55:42;;;;;;;6.35;4.20;;;;;;;21.89;41.09;99068.22;5046273;28;20041;-70
2023/06/12 10:58:12;;;;;;;5.60;3.95;;;;;;;22.01;41.20;99053.41;5045130;28;20067;-71
2023/06/12 11:00:45;;;;;;;4.72;3.78;;;;;;;22.10;39.87;99038.91;5045330;28;20041;-71
2023/06/12 11:03:14;;;;;;;13.32;11.85;;;;;;;21.63;39.97;98991.91;5046578;28;20281;-71
2023/06/12 11:05:47;;;;;;;7.55;6.75;;;;;;;21.99;40.86;99052.72;5045874;28;20197;-71
2023/06/12 11:08:14;;;;;;;5.43;4.75;;;;;;;21.93;40.52;99042.59;5045883;28;20048;-71
2023/06/12 11:10:43;;;;;;;8.45;5.53;;;;;;;21.91;40.56;99054.56;5045987;28;20045;-71
2023/06/12 11:13:10;;;;;;;5.70;4.70;;;;;;;22.08;39.23;99043.66;5044848;28;20044;-71
2023/06/12 11:15:45;;;;;;;4.95;3.88;;;;;;;22.06;37.83;99031.31;5045135;28;20339;-71
2023/06/12 11:18:13;;;;;;;5.65;3.95;;;;;;;21.88;38.07;99038.69;5044810;28;20041;-71
2023/06/12 11:20:40;;;;;;;7.95;5.47;;;;;;;21.81;39.32;99033.13;5046114;28;20037;-71
2023/06/12 11:23:07;;;;;;;6.68;4.80;;;;;;;21.15;38.23;98952.97;5044598;28;20209;-70
2023/06/12 11:25:35;;;;;;;7.05;5.32;;;;;;;21.58;38.85;99029.28;5044833;28;20056;-71
2023/06/12 11:28:06;;;;;;;7.10;5.30;;;;;;;21.65;40.00;99033.03;5045761;28;20052;-69
2023/06/12 11:30:33;;;;;;;6.95;5.60;;;;;;;21.87;39.93;99035.16;5045435;28;20052;-71
2023/06/12 11:33:08;;;;;;;7.28;4.65;;;;;;;21.69;37.67;99000.19;5044576;28;20100;-72
2023/06/12 11:35:40;;;;;;;5.63;4.05;;;;;;;21.91;37.88;99020.31;5045998;28;20037;-72
2023/06/12 11:38:07;;;;;;;6.88;5.22;;;;;;;22.10;38.10;99025.44;5044392;28;20225;-71